Time;durP1;ratioP1;P1;durP2;ratioP2;P2;SDS_P1;SDS_P2;PMS_P1;PMS_P2;Temp;Humidity;BMP_temperature;BMP_pressure;BME280_temperature;BME280_humidity;BME280_pressure;Samples;Min_cycle;Max_cycle;Signal;HPM_P1;HPM_P2
2022/07/23 00:00:53;;;;;;;14.07;9.85;;;31.20;57.20;;;;;;6185158;23;20001;-78
2022/07/23 00:03:19;;;;;;;9.98;8.32;;;31.10;57.50;;;;;;6184927;23;20300;-77
2022/07/23 00:05:44;;;;;;;11.15;9.75;;;31.10;57.50;;;;;;6184037;23;20079;-77
2022/07/23 00:08:10;;;;;;;10.55;8.80;;;31.10;57.70;;;;;;6185024;23;20048;-77
2022/07/23 00:10:36;;;;;;;9.48;8.45;;;31.10;57.90;;;;;;6184291;23;20008;-77
2022/07/23 00:13:02;;;;;;;11.27;8.98;;;31.10;58.20;;;;;;6185081;23;20359;-77
2022/07/23 00:15:28;;;;;;;10.48;8.88;;;31.00;58.30;;;;;;6184560;23;20002;-76
2022/07/23 00:17:53;;;;;;;10.52;8.82;;;31.10;58.40;;;;;;6184435;23;20032;-76
2022/07/23 00:20:19;;;;;;;9.90;8.35;;;31.00;58.40;;;;;;6184621;23;20083;-76
2022/07/23 00:22:53;;;;;;;11.30;8.35;;;31.10;58.70;;;;;;6184857;23;20412;-76
2022/07/23 00:25:21;;;;;;;8.98;8.07;;;31.00;59.00;;;;;;6186132;23;20339;-76
2022/07/23 00:27:46;;;;;;;9.13;8.10;;;31.00;59.20;;;;;;6186706;23;20011;-76
2022/07/23 00:30:12;;;;;;;11.65;8.32;;;31.00;59.50;;;;;;6185976;23;20365;-77
2022/07/23 00:32:47;;;;;;;9.70;8.70;;;31.00;60.00;;;;;;6186864;23;20005;-77
2022/07/23 00:35:13;;;;;;;12.25;8.55;;;31.00;60.90;;;;;;6186320;23;20001;-77
2022/07/23 00:37:39;;;;;;;10.60;8.30;;;31.00;61.60;;;;;;6186558;23;20008;-77
2022/07/23 00:40:06;;;;;;;11.45;8.98;;;31.00;62.50;;;;;;6186024;23;20021;-77
2022/07/23 00:42:32;;;;;;;10.30;9.10;;;31.00;63.30;;;;;;6186676;23;20001;-77
2022/07/23 00:44:58;;;;;;;15.82;8.98;;;31.00;63.50;;;;;;6186426;23;20013;-76
2022/07/23 00:47:23;;;;;;;11.52;8.65;;;30.90;63.70;;;;;;6186731;23;20005;-76
2022/07/23 00:49:49;;;;;;;10.05;9.02;;;30.90;64.00;;;;;;6186283;23;20000;-76
2022/07/23 00:52:15;;;;;;;11.10;9.15;;;30.90;64.30;;;;;;6185717;23;20083;-76
2022/07/23 00:54:41;;;;;;;12.90;9.38;;;30.90;64.50;;;;;;6186045;23;20008;-76
2022/07/23 00:57:07;;;;;;;11.73;9.35;;;30.80;64.50;;;;;;6186203;23;20001;-75
2022/07/23 00:59:33;;;;;;;12.18;8.75;;;30.80;64.50;;;;;;6186463;23;20012;-75
2022/07/23 01:01:58;;;;;;;10.40;8.77;;;30.80;64.70;;;;;;6186511;23;20005;-75
2022/07/23 01:04:24;;;;;;;11.48;9.30;;;30.70;64.70;;;;;;6186150;23;20047;-75
2022/07/23 01:06:50;;;;;;;10.45;9.18;;;30.70;64.90;;;;;;6186068;23;20481;-75
2022/07/23 01:09:16;;;;;;;10.38;9.00;;;30.70;65.20;;;;;;6159406;23;20044;-75
2022/07/23 01:11:42;;;;;;;10.68;8.65;;;30.70;65.70;;;;;;6186801;23;20451;-75
2022/07/23 01:14:09;;;;;;;10.02;9.02;;;30.70;66.10;;;;;;6185909;23;20001;-75
2022/07/23 01:16:34;;;;;;;10.93;9.82;;;30.70;66.60;;;;;;6186212;23;20024;-76
2022/07/23 01:19:00;;;;;;;11.63;9.88;;;30.70;67.10;;;;;;6186353;23;20312;-75
2022/07/23 01:21:26;;;;;;;10.65;9.55;;;30.60;67.50;;;;;;6159770;23;20016;-76
2022/07/23 01:23:52;;;;;;;11.02;9.57;;;30.60;68.00;;;;;;6185688;23;20001;-76
2022/07/23 01:26:17;;;;;;;12.07;10.40;;;30.60;68.60;;;;;;6185525;23;20028;-76
2022/07/23 01:28:43;;;;;;;12.27;9.18;;;30.60;69.10;;;;;;6186185;23;20008;-76
2022/07/23 01:31:09;;;;;;;12.15;9.98;;;30.60;69.70;;;;;;6186623;23;20005;-76
2022/07/23 01:33:35;;;;;;;11.23;10.05;;;30.60;70.10;;;;;;6159400;23;20324;-76
2022/07/23 01:36:00;;;;;;;11.70;10.23;;;30.60;70.50;;;;;;6186019;23;20100;-76
2022/07/23 01:38:26;;;;;;;12.27;11.00;;;30.50;71.00;;;;;;6184850;23;20364;-76
2022/07/23 01:40:52;;;;;;;12.68;10.10;;;30.50;71.60;;;;;;6186424;23;20013;-76
2022/07/23 01:43:17;;;;;;;11.68;10.25;;;30.50;72.00;;;;;;6185485;23;20033;-76
2022/07/23 01:45:44;;;;;;;13.52;10.70;;;30.40;72.40;;;;;;6159706;23;20013;-76
2022/07/23 01:48:10;;;;;;;11.75;10.55;;;30.50;73.00;;;;;;6185916;23;20001;-76
2022/07/23 01:50:35;;;;;;;12.15;10.38;;;30.50;73.40;;;;;;6185572;23;20001;-77
2022/07/23 01:53:01;;;;;;;11.25;10.10;;;30.50;73.80;;;;;;6185885;23;20354;-76
2022/07/23 01:55:27;;;;;;;13.07;11.27;;;30.50;74.20;;;;;;6186520;23;20009;-76
2022/07/23 01:57:52;;;;;;;13.20;10.43;;;30.50;75.00;;;;;;6185664;23;20309;-76
2022/07/23 02:00:18;;;;;;;13.20;10.63;;;30.40;75.00;;;;;;6185542;23;20047;-76
2022/07/23 02:02:44;;;;;;;13.32;11.10;;;30.40;75.30;;;;;;6185087;23;20001;-76
2022/07/23 02:05:10;;;;;;;13.55;10.68;;;30.50;75.60;;;;;;6185340;23;20028;-76
2022/07/23 02:07:35;;;;;;;19.58;11.00;;;30.40;75.60;;;;;;6184691;23;20420;-77
2022/07/23 02:10:01;;;;;;;13.05;10.57;;;30.40;75.70;;;;;;6185302;23;20142;-76
2022/07/23 02:12:27;;;;;;;13.15;10.95;;;30.30;76.10;;;;;;6185615;23;20431;-76
2022/07/23 02:14:52;;;;;;;12.90;11.57;;;30.30;76.00;;;;;;6185586;23;20412;-76
2022/07/23 02:17:18;;;;;;;14.77;11.80;;;30.30;76.00;;;;;;6185501;23;20001;-77
2022/07/23 02:19:44;;;;;;;11.77;10.57;;;30.30;76.50;;;;;;6158729;23;20430;-76
2022/07/23 02:22:09;;;;;;;14.27;12.40;;;30.20;76.10;;;;;;6185615;23;20028;-76
2022/07/23 02:24:35;;;;;;;18.85;16.85;;;30.20;76.20;;;;;;6185532;23;20416;-76
2022/07/23 02:27:00;;;;;;;17.50;13.80;;;30.00;74.30;;;;;;6185220;23;19997;-76
2022/07/23 02:29:26;;;;;;;14.02;10.68;;;29.80;75.10;;;;;;6184926;23;20436;-76
2022/07/23 02:31:52;;;;;;;11.93;10.75;;;29.80;74.70;;;;;;6185461;23;20412;-75
2022/07/23 02:34:17;;;;;;;13.23;11.90;;;29.80;74.50;;;;;;6185142;23;20005;-77
2022/07/23 02:36:43;;;;;;;12.18;10.88;;;29.90;74.40;;;;;;6186021;23;20001;-76
2022/07/23 02:39:09;;;;;;;27.25;19.45;;;29.90;74.70;;;;;;6184882;23;20059;-75
2022/07/23 02:41:34;;;;;;;24.67;19.23;;;29.30;72.00;;;;;;6185503;23;20001;-75
2022/07/23 02:44:00;;;;;;;20.55;18.02;;;28.60;74.20;;;;;;6185139;23;19997;-75
2022/07/23 02:46:26;;;;;;;22.70;20.33;;;28.40;73.60;;;;;;6185603;23;20005;-75
2022/07/23 02:48:52;;;;;;;22.90;18.30;;;27.90;73.80;;;;;;6184671;23;20008;-75
2022/07/23 02:51:17;;;;;;;22.35;19.20;;;27.60;74.20;;;;;;6185086;23;20427;-75
2022/07/23 02:53:43;;;;;;;16.23;12.52;;;27.30;74.70;;;;;;6185031;23;20503;-75
2022/07/23 02:56:09;;;;;;;13.98;11.48;;;27.60;74.20;;;;;;6185617;23;20001;-75
2022/07/23 02:58:35;;;;;;;12.90;11.55;;;27.90;73.60;;;;;;6185305;23;20054;-75
2022/07/23 03:01:00;;;;;;;13.27;11.68;;;28.10;72.80;;;;;;6185342;23;19997;-75
2022/07/23 03:03:26;;;;;;;16.13;13.45;;;28.20;71.90;;;;;;6183407;23;20372;-75
2022/07/23 03:05:52;;;;;;;19.50;17.23;;;28.40;71.20;;;;;;6185524;23;20320;-75
2022/07/23 03:08:17;;;;;;;19.63;17.40;;;28.20;70.80;;;;;;6185042;23;20076;-75
2022/07/23 03:10:43;;;;;;;19.88;16.27;;;27.90;70.80;;;;;;6185735;23;20008;-75
2022/07/23 03:13:09;;;;;;;15.95;12.50;;;27.70;72.40;;;;;;6185065;23;20009;-75
2022/07/23 03:15:34;;;;;;;15.60;12.15;;;27.70;72.00;;;;;;6185299;23;20017;-75
2022/07/23 03:18:00;;;;;;;12.57;10.15;;;27.80;71.60;;;;;;6185096;23;20052;-75
2022/07/23 03:20:26;;;;;;;13.52;11.60;;;28.00;71.30;;;;;;6185506;23;20009;-75
2022/07/23 03:22:51;;;;;;;11.77;9.80;;;28.20;70.80;;;;;;6184682;23;20056;-75
2022/07/23 03:25:17;;;;;;;14.27;11.88;;;28.30;70.20;;;;;;6185489;23;20032;-75
2022/07/23 03:27:45;;;;;;;11.88;10.57;;;28.40;69.90;;;;;;6184429;23;20089;-75
2022/07/23 03:30:11;;;;;;;11.40;10.15;;;28.50;69.90;;;;;;6185171;23;20021;-75
2022/07/23 03:32:37;;;;;;;17.15;14.20;;;28.50;69.70;;;;;;6184696;23;20001;-76
2022/07/23 03:35:05;;;;;;;15.82;12.82;;;28.60;69.90;;;;;;6185345;23;20028;-76
2022/07/23 03:37:30;;;;;;;22.65;18.05;;;28.50;69.90;;;;;;6184875;23;20020;-74
2022/07/23 03:39:56;;;;;;;17.67;15.73;;;28.30;69.80;;;;;;6158033;23;20099;-75
2022/07/23 03:42:22;;;;;;;18.50;16.60;;;27.80;69.90;;;;;;6184821;23;20044;-76
2022/07/23 03:44:48;;;;;;;35.60;15.43;;;27.40;70.70;;;;;;6185160;23;20003;-76
2022/07/23 03:47:13;;;;;;;17.33;14.43;;;27.30;71.40;;;;;;6183969;23;20004;-76
2022/07/23 03:49:40;;;;;;;23.23;14.98;;;27.10;71.30;;;;;;6158668;23;20044;-76
2022/07/23 03:52:05;;;;;;;12.77;10.57;;;26.90;71.60;;;;;;6184308;23;20399;-75
2022/07/23 03:54:31;;;;;;;14.60;12.05;;;27.00;71.40;;;;;;6158746;23;20005;-76
2022/07/23 03:56:57;;;;;;;12.90;10.35;;;27.30;71.00;;;;;;6184891;23;20008;-76
2022/07/23 03:59:22;;;;;;;12.52;11.23;;;27.50;70.50;;;;;;6185545;23;20391;-76
2022/07/23 04:01:48;;;;;;;11.10;9.85;;;27.60;70.10;;;;;;6186004;23;20073;-76
2022/07/23 04:04:14;;;;;;;12.70;10.73;;;27.80;69.70;;;;;;6186770;23;20413;-75
2022/07/23 04:06:39;;;;;;;14.13;10.68;;;27.90;69.50;;;;;;6159952;23;20071;-74
2022/07/23 04:09:05;;;;;;;12.88;11.00;;;28.00;69.20;;;;;;6159665;23;20008;-74
2022/07/23 04:11:31;;;;;;;11.35;9.75;;;28.10;69.40;;;;;;6186558;23;20008;-74
2022/07/23 04:13:57;;;;;;;12.25;10.55;;;28.10;69.10;;;;;;6187210;23;20001;-74
2022/07/23 04:16:22;;;;;;;13.82;11.68;;;28.10;69.10;;;;;;6186975;23;20009;-79
2022/07/23 04:18:48;;;;;;;19.52;10.60;;;28.10;69.20;;;;;;6186962;23;20008;-74
2022/07/23 04:21:14;;;;;;;14.68;10.00;;;28.20;69.00;;;;;;6186939;23;20055;-74
2022/07/23 04:23:39;;;;;;;11.85;10.60;;;28.20;69.00;;;;;;6184348;23;20011;-74
2022/07/23 04:26:05;;;;;;;13.55;10.52;;;28.30;69.20;;;;;;6184381;23;20076;-74
2022/07/23 04:28:31;;;;;;;12.45;10.60;;;28.40;69.20;;;;;;6186158;23;20005;-74
2022/07/23 04:30:57;;;;;;;12.75;10.88;;;28.40;69.30;;;;;;6157851;23;20005;-74
2022/07/23 04:33:23;;;;;;;15.45;11.00;;;28.50;69.30;;;;;;6185454;23;20012;-74
2022/07/23 04:35:48;;;;;;;15.60;10.93;;;28.50;69.20;;;;;;6185882;23;20005;-78
2022/07/23 04:38:14;;;;;;;16.35;13.02;;;28.50;69.00;;;;;;6186674;23;20005;-77
2022/07/23 04:40:40;;;;;;;17.15;11.63;;;28.50;69.20;;;;;;6159780;23;20452;-77
2022/07/23 04:43:06;;;;;;;17.02;10.45;;;28.60;69.00;;;;;;6186663;23;20011;-76
2022/07/23 04:45:31;;;;;;;13.55;10.82;;;28.60;69.10;;;;;;6186382;23;20327;-77
2022/07/23 04:47:57;;;;;;;15.38;11.07;;;28.60;69.30;;;;;;6186911;23;20119;-77
2022/07/23 04:50:23;;;;;;;12.10;10.57;;;28.60;69.20;;;;;;6186239;23;19998;-77
2022/07/23 04:52:49;;;;;;;13.68;10.63;;;28.60;69.10;;;;;;6186609;23;20009;-77
2022/07/23 04:55:16;;;;;;;16.90;12.73;;;28.60;69.00;;;;;;6160646;23;20344;-77
2022/07/23 04:57:41;;;;;;;21.58;13.27;;;28.60;68.40;;;;;;6186599;23;20001;-77
2022/07/23 05:00:08;;;;;;;19.10;15.65;;;28.30;67.90;;;;;;6160249;23;20031;-77
2022/07/23 05:02:34;;;;;;;20.20;16.23;;;27.90;68.40;;;;;;6186448;23;20367;-77
2022/07/23 05:04:59;;;;;;;21.52;16.70;;;27.60;69.60;;;;;;6186820;23;20032;-77
2022/07/23 05:07:25;;;;;;;18.23;16.25;;;27.30;70.10;;;;;;6186618;23;20027;-77
2022/07/23 05:09:50;;;;;;;21.15;16.85;;;27.10;70.40;;;;;;6186497;23;19998;-77
2022/07/23 05:12:16;;;;;;;23.60;15.40;;;27.00;70.60;;;;;;6160219;23;20053;-77
2022/07/23 05:14:42;;;;;;;14.18;12.35;;;26.90;71.90;;;;;;6160307;23;20040;-77
2022/07/23 05:17:08;;;;;;;18.40;13.02;;;27.00;71.50;;;;;;6186914;23;20012;-77
2022/07/23 05:19:34;;;;;;;17.08;13.15;;;27.20;71.00;;;;;;6185900;23;20005;-77
2022/07/23 05:22:00;;;;;;;14.48;11.00;;;27.30;70.90;;;;;;6159532;23;20031;-76
2022/07/23 05:24:26;;;;;;;14.88;11.15;;;27.50;70.60;;;;;;6186783;23;20388;-77
2022/07/23 05:26:52;;;;;;;25.55;18.10;;;27.60;70.60;;;;;;6186508;23;20393;-77
2022/07/23 05:29:17;;;;;;;19.67;15.98;;;27.50;72.30;;;;;;6185665;23;20001;-76
2022/07/23 05:31:43;;;;;;;22.95;19.13;;;27.40;72.80;;;;;;6186420;23;20021;-77
2022/07/23 05:34:09;;;;;;;14.70;12.00;;;27.20;74.30;;;;;;6158743;23;20384;-77
2022/07/23 05:36:35;;;;;;;17.20;13.40;;;27.30;73.00;;;;;;6186274;23;20059;-77
2022/07/23 05:39:01;;;;;;;12.75;11.30;;;27.50;72.70;;;;;;6185751;23;20320;-77
2022/07/23 05:41:26;;;;;;;20.40;17.13;;;27.70;72.50;;;;;;6186264;23;20009;-78
2022/07/23 05:43:53;;;;;;;18.10;15.75;;;27.80;73.20;;;;;;6186155;23;20001;-77
2022/07/23 05:46:19;;;;;;;16.25;13.45;;;27.80;72.80;;;;;;6185826;23;20001;-77
2022/07/23 05:48:49;;;;;;;20.58;17.40;;;27.90;72.60;;;;;;6184849;23;20024;-76
2022/07/23 05:51:21;;;;;;;;;;;27.80;73.90;;;;;;6185504;23;20001;-77
2022/07/23 05:53:47;;;;;;;12.82;10.95;;;27.70;74.80;;;;;;6186055;23;19900;-76
2022/07/23 05:56:13;;;;;;;16.73;12.02;;;27.80;73.60;;;;;;6186083;23;20028;-77
2022/07/23 05:58:39;;;;;;;13.10;11.05;;;27.90;73.50;;;;;;6185109;23;20001;-77
2022/07/23 06:01:05;;;;;;;13.27;11.93;;;28.10;73.20;;;;;;6185391;23;20001;-77
2022/07/23 06:03:30;;;;;;;14.30;12.20;;;28.20;73.10;;;;;;6185951;23;20049;-77
2022/07/23 06:05:56;;;;;;;23.42;17.77;;;28.40;73.20;;;;;;6186586;23;19997;-77
2022/07/23 06:08:22;;;;;;;22.48;17.70;;;28.40;73.80;;;;;;6159443;23;20005;-77
2022/07/23 06:10:47;;;;;;;20.52;18.33;;;28.40;74.70;;;;;;6185717;23;20116;-77
2022/07/23 06:13:13;;;;;;;22.15;17.42;;;28.00;75.80;;;;;;6186223;23;20009;-77
2022/07/23 06:15:39;;;;;;;23.85;18.23;;;27.90;77.10;;;;;;6186088;23;20031;-77
2022/07/23 06:18:04;;;;;;;18.45;15.43;;;27.80;78.00;;;;;;6186054;23;20029;-77
2022/07/23 06:20:30;;;;;;;16.10;11.70;;;27.90;77.10;;;;;;6185098;23;20494;-77
2022/07/23 06:22:56;;;;;;;16.25;13.63;;;28.10;76.10;;;;;;6185207;23;20001;-81
2022/07/23 06:25:21;;;;;;;12.77;11.00;;;28.30;76.00;;;;;;6184945;23;20001;-80
2022/07/23 06:27:47;;;;;;;14.23;12.57;;;28.50;75.80;;;;;;6185640;23;20005;-80
2022/07/23 06:30:15;;;;;;;14.82;12.05;;;28.60;75.80;;;;;;6185734;23;20128;-80
2022/07/23 06:32:41;;;;;;;15.25;13.25;;;28.80;75.80;;;;;;6185293;23;20265;-81
2022/07/23 06:35:07;;;;;;;21.98;17.63;;;28.90;75.80;;;;;;6179869;23;20005;-80
2022/07/23 06:37:33;;;;;;;13.88;12.30;;;28.90;76.50;;;;;;6182398;23;20013;-81
2022/07/23 06:39:58;;;;;;;15.23;12.65;;;29.00;75.70;;;;;;6182403;23;20020;-80
2022/07/23 06:42:24;;;;;;;20.33;15.27;;;29.10;75.70;;;;;;6181933;23;20625;-80
2022/07/23 06:44:50;;;;;;;18.20;14.05;;;29.20;76.40;;;;;;6182396;23;20337;-80
2022/07/23 06:47:15;;;;;;;23.85;15.45;;;29.20;76.50;;;;;;6181328;23;20396;-80
2022/07/23 06:49:42;;;;;;;28.35;20.65;;;29.20;76.80;;;;;;6181922;23;20028;-80
2022/07/23 06:52:08;;;;;;;14.00;12.10;;;29.20;79.20;;;;;;6155972;23;20005;-80
2022/07/23 06:54:34;;;;;;;27.73;20.33;;;29.30;77.50;;;;;;6182185;23;20001;-80
2022/07/23 06:57:00;;;;;;;20.60;17.92;;;29.30;79.20;;;;;;6181785;23;20020;-80
2022/07/23 06:59:26;;;;;;;21.00;16.67;;;29.30;79.30;;;;;;6152659;23;20428;-80
2022/07/23 07:01:51;;;;;;;24.05;16.80;;;29.20;79.50;;;;;;6182474;23;20051;-82
2022/07/23 07:04:17;;;;;;;25.08;17.40;;;29.30;80.70;;;;;;6183091;23;20000;-81
2022/07/23 07:06:43;;;;;;;20.98;17.15;;;29.20;81.40;;;;;;6184808;23;20036;-81
2022/07/23 07:09:08;;;;;;;21.70;18.30;;;29.20;80.70;;;;;;6183335;23;20011;-81
2022/07/23 07:11:34;;;;;;;14.75;13.18;;;29.20;80.20;;;;;;6184243;23;20001;-82
2022/07/23 07:14:01;;;;;;;15.45;13.85;;;29.20;79.50;;;;;;6185776;23;19997;-81
2022/07/23 07:16:27;;;;;;;15.68;12.25;;;29.30;79.20;;;;;;6185466;23;20416;-82
2022/07/23 07:18:53;;;;;;;21.60;16.77;;;29.50;79.10;;;;;;6185034;23;19997;-82
2022/07/23 07:21:18;;;;;;;12.88;11.55;;;29.50;79.30;;;;;;6185350;23;20025;-82
2022/07/23 07:23:44;;;;;;;14.65;12.73;;;29.60;78.40;;;;;;6185418;23;20036;-82
2022/07/23 07:26:10;;;;;;;12.55;10.70;;;29.70;78.20;;;;;;6185470;23;20292;-81
2022/07/23 07:28:35;;;;;;;20.38;15.25;;;29.80;77.70;;;;;;6185934;23;20008;-81
2022/07/23 07:31:01;;;;;;;14.07;11.68;;;29.90;77.10;;;;;;6185237;23;20009;-80
2022/07/23 07:33:27;;;;;;;18.08;16.17;;;30.00;76.90;;;;;;6185407;23;20028;-81
2022/07/23 07:35:53;;;;;;;20.58;15.52;;;30.00;77.10;;;;;;6187633;23;20022;-82
2022/07/23 07:38:19;;;;;;;12.32;11.02;;;30.00;76.10;;;;;;6187684;23;20081;-82
2022/07/23 07:40:44;;;;;;;14.60;13.13;;;30.10;75.90;;;;;;6187265;23;20017;-81
2022/07/23 07:43:10;;;;;;;13.32;11.13;;;30.20;74.60;;;;;;6187175;23;20375;-82
2022/07/23 07:45:36;;;;;;;16.80;13.00;;;30.30;74.10;;;;;;6187625;23;20001;-82
2022/07/23 07:48:01;;;;;;;10.52;9.27;;;30.30;73.40;;;;;;6186876;23;20058;-81
2022/07/23 07:50:27;;;;;;;14.02;12.57;;;30.40;73.10;;;;;;6187200;23;20001;-82
2022/07/23 07:52:53;;;;;;;13.00;10.65;;;30.40;72.30;;;;;;6186841;23;20016;-81
2022/07/23 07:55:19;;;;;;;11.80;10.70;;;30.60;72.30;;;;;;6186382;23;20363;-82
2022/07/23 07:57:44;;;;;;;12.60;10.40;;;30.60;71.40;;;;;;6187111;23;20028;-82
2022/07/23 08:00:11;;;;;;;14.63;10.18;;;30.70;71.40;;;;;;6187458;23;20304;-82
2022/07/23 08:02:43;;;;;;;12.75;11.32;;;30.80;70.50;;;;;;6186210;23;20005;-81
2022/07/23 08:05:10;;;;;;;19.85;13.55;;;30.80;70.20;;;;;;6186876;23;19997;-81
2022/07/23 08:07:37;;;;;;;13.02;11.63;;;30.90;68.80;;;;;;6187227;23;20001;-82
2022/07/23 08:10:03;;;;;;;12.23;9.75;;;30.90;67.60;;;;;;6187347;23;20002;-81
2022/07/23 08:12:38;;;;;;;10.93;9.82;;;30.90;68.40;;;;;;6186927;23;20013;-82
2022/07/23 08:15:05;;;;;;;18.27;13.88;;;31.10;68.50;;;;;;6160622;23;20056;-82
2022/07/23 08:17:30;;;;;;;15.43;12.70;;;31.10;67.10;;;;;;6187184;23;20005;-81
2022/07/23 08:19:56;;;;;;;12.63;11.43;;;31.20;65.80;;;;;;6160414;23;20432;-81
2022/07/23 08:22:22;;;;;;;12.38;9.38;;;31.30;66.50;;;;;;6186774;23;20009;-81
2022/07/23 08:24:47;;;;;;;12.65;9.20;;;31.40;66.60;;;;;;6187094;23;20081;-81
2022/07/23 08:27:13;;;;;;;12.50;8.45;;;31.50;66.40;;;;;;6178747;23;20008;-82
2022/07/23 08:29:39;;;;;;;8.25;7.45;;;31.50;65.70;;;;;;6183830;23;20337;-82
2022/07/23 08:32:05;;;;;;;9.25;7.85;;;31.70;64.70;;;;;;6185548;23;20528;-82
2022/07/23 08:34:30;;;;;;;9.10;8.15;;;31.80;64.00;;;;;;6186647;23;20012;-82
2022/07/23 08:36:56;;;;;;;9.82;6.95;;;31.90;62.20;;;;;;6186631;23;20052;-81
2022/07/23 08:39:21;;;;;;;8.25;7.35;;;32.00;60.70;;;;;;6185970;23;20009;-81
2022/07/23 08:41:48;;;;;;;9.48;7.68;;;32.00;60.10;;;;;;6186212;23;20004;-82
2022/07/23 08:44:16;;;;;;;8.75;7.53;;;32.10;58.70;;;;;;6186790;23;20001;-82
2022/07/23 08:46:43;;;;;;;12.50;9.30;;;32.10;59.20;;;;;;6186257;23;20054;-82
2022/07/23 08:49:09;;;;;;;10.65;7.85;;;32.20;58.70;;;;;;6186216;23;20021;-81
2022/07/23 08:51:35;;;;;;;9.27;7.50;;;32.30;59.10;;;;;;6186037;23;20016;-82
2022/07/23 08:54:01;;;;;;;8.93;7.55;;;32.40;59.00;;;;;;6181444;23;20001;-82
2022/07/23 08:56:28;;;;;;;8.48;6.28;;;32.40;56.60;;;;;;6183062;23;20012;-82
2022/07/23 08:58:54;;;;;;;8.88;7.97;;;32.50;57.10;;;;;;6182737;23;20001;-82
2022/07/23 09:01:20;;;;;;;10.70;7.80;;;32.50;56.90;;;;;;6183299;23;20005;-82
2022/07/23 09:03:54;;;;;;;9.65;6.70;;;32.60;56.90;;;;;;6182170;23;20015;-81
2022/07/23 09:06:21;;;;;;;8.90;7.38;;;32.60;57.60;;;;;;6156124;23;20016;-82
2022/07/23 09:08:46;;;;;;;10.73;8.00;;;32.70;57.90;;;;;;6182735;23;20080;-82
2022/07/23 09:11:16;;;;;;;8.30;7.50;;;32.80;58.00;;;;;;6157467;23;20012;-82
2022/07/23 09:13:53;;;;;;;13.85;8.13;;;33.00;57.20;;;;;;6183451;23;20127;-82
2022/07/23 09:16:30;;;;;;;13.32;8.63;;;33.00;57.20;;;;;;6156013;23;20065;-82
2022/07/23 09:19:04;;;;;;;10.82;8.43;;;33.10;57.00;;;;;;6182899;23;20005;-82
2022/07/23 09:21:31;;;;;;;7.85;6.68;;;33.20;55.00;;;;;;6182612;23;20016;-82
2022/07/23 09:24:03;;;;;;;8.90;7.90;;;33.30;55.90;;;;;;6183395;23;20072;-82
2022/07/23 09:26:37;;;;;;;10.43;7.57;;;33.20;54.10;;;;;;6183023;23;20001;-82
2022/07/23 09:29:11;;;;;;;8.88;7.50;;;33.40;54.60;;;;;;6182495;23;20051;-82
2022/07/23 09:31:53;;;;;;;9.30;7.43;;;33.50;54.20;;;;;;6182901;23;20047;-82
2022/07/23 09:34:23;;;;;;;8.15;6.50;;;33.50;54.10;;;;;;6183083;23;20001;-82
2022/07/23 09:37:10;;;;;;;11.38;7.93;;;33.70;54.40;;;;;;6182915;23;20032;-82
2022/07/23 09:39:36;;;;;;;9.52;8.00;;;33.70;54.40;;;;;;6181357;23;20044;-82
2022/07/23 09:42:17;;;;;;;7.80;7.00;;;33.90;54.20;;;;;;6182400;23;20016;-82
2022/07/23 09:45:01;;;;;;;8.35;6.85;;;33.90;53.70;;;;;;6182498;23;20004;-82
2022/07/23 09:47:30;;;;;;;8.80;7.50;;;34.00;53.50;;;;;;6182827;23;20324;-82
2022/07/23 09:50:00;;;;;;;8.75;6.40;;;34.10;53.10;;;;;;6181220;23;20001;-82
2022/07/23 09:52:29;;;;;;;8.00;7.13;;;34.20;52.50;;;;;;6182547;23;20001;-82
2022/07/23 09:55:00;;;;;;;8.55;7.00;;;34.30;51.90;;;;;;6182946;23;20008;-82
2022/07/23 09:57:27;;;;;;;8.18;6.63;;;34.30;50.20;;;;;;6155987;23;20139;-82
2022/07/23 09:59:55;;;;;;;8.57;6.72;;;34.40;50.40;;;;;;6182410;23;20185;-82
2022/07/23 10:02:21;;;;;;;6.07;5.47;;;34.50;50.10;;;;;;6182408;23;20016;-82
2022/07/23 10:04:47;;;;;;;6.55;5.63;;;34.50;49.40;;;;;;6182403;23;20047;-82
2022/07/23 10:07:16;;;;;;;6.60;5.72;;;34.60;48.30;;;;;;6182973;23;20005;-82
2022/07/23 10:09:45;;;;;;;9.15;4.88;;;34.70;47.10;;;;;;6182862;23;20332;-82
2022/07/23 10:14:57;;;;;;;7.35;4.07;;;34.80;46.70;;;;;;6184920;23;20071;-83
2022/07/23 10:17:23;;;;;;;5.57;4.68;;;35.00;46.20;;;;;;6185354;23;20004;-82
2022/07/23 10:19:49;;;;;;;4.07;3.67;;;35.00;44.40;;;;;;6184686;23;20533;-82
2022/07/23 10:22:25;;;;;;;4.00;3.38;;;35.10;44.40;;;;;;6185480;23;20087;-82
2022/07/23 10:25:05;;;;;;;3.95;3.55;;;35.20;42.30;;;;;;6185468;23;20084;-82
2022/07/23 10:27:50;;;;;;;6.68;3.17;;;35.10;38.30;;;;;;6185085;23;20412;-82
2022/07/23 10:30:22;;;;;;;4.43;3.20;;;35.10;39.40;;;;;;6185891;23;19997;-82
2022/07/23 10:33:06;;;;;;;5.50;2.78;;;35.20;40.30;;;;;;6186109;23;20290;-82
2022/07/23 10:35:51;;;;;;;3.63;3.00;;;35.30;40.70;;;;;;6185968;23;20005;-82
2022/07/23 10:38:26;;;;;;;3.45;3.10;;;35.50;39.60;;;;;;6185716;23;20316;-82
2022/07/23 10:41:03;;;;;;;5.10;4.00;;;35.60;40.10;;;;;;6185400;23;20091;-82
2022/07/23 10:43:30;;;;;;;6.95;4.30;;;35.80;36.30;;;;;;6186051;23;20356;-82
2022/07/23 10:49:26;;;;;;;3.78;2.97;;;35.80;37.90;;;;;;6138680;23;20075;-82
2022/07/23 10:52:15;;;;;;;3.38;3.08;;;35.90;37.30;;;;;;6184977;23;20012;-82
2022/07/23 10:54:52;;;;;;;3.67;2.83;;;35.90;35.90;;;;;;6185363;23;20085;-82
2022/07/23 10:57:21;;;;;;;7.72;2.70;;;36.00;37.20;;;;;;6159270;23;20032;-82
2022/07/23 11:00:07;;;;;;;5.18;3.10;;;36.10;37.70;;;;;;6185597;23;20025;-82
2022/07/23 11:02:33;;;;;;;3.88;3.47;;;36.30;37.40;;;;;;6184604;23;20001;-83
2022/07/23 11:05:05;;;;;;;4.43;3.80;;;36.40;36.60;;;;;;6185093;23;20593;-82
2022/07/23 11:07:31;;;;;;;7.53;6.07;;;36.60;37.10;;;;;;6185160;23;20001;-82
2022/07/23 11:09:57;;;;;;;7.00;4.97;;;36.60;36.40;;;;;;6185427;23;20498;-82
2022/07/23 11:12:28;;;;;;;7.65;5.43;;;36.70;37.60;;;;;;6185294;23;20005;-82
2022/07/23 11:15:06;;;;;;;7.00;6.07;;;36.90;38.50;;;;;;6184368;23;20307;-82
2022/07/23 11:17:38;;;;;;;6.97;6.05;;;37.00;39.20;;;;;;6185353;23;20033;-82
2022/07/23 11:20:15;;;;;;;9.63;5.55;;;37.20;39.60;;;;;;6184900;23;20008;-82
2022/07/23 11:22:43;;;;;;;8.10;5.28;;;37.40;39.70;;;;;;6185486;23;20015;-82
2022/07/23 11:25:10;;;;;;;6.03;5.47;;;37.60;40.00;;;;;;6185457;23;20063;-82
2022/07/23 11:27:44;;;;;;;7.15;6.45;;;37.90;39.90;;;;;;6184804;23;20056;-82
2022/07/23 11:30:31;;;;;;;8.63;7.60;;;38.00;39.40;;;;;;6185099;23;19997;-82
2022/07/23 11:33:26;;;;;;;9.68;7.20;;;38.10;39.70;;;;;;6185067;23;20001;-82
2022/07/23 11:36:03;;;;;;;9.90;7.45;;;38.30;40.90;;;;;;6166146;23;20009;-82
2022/07/23 11:38:31;;;;;;;9.98;7.45;;;38.50;41.90;;;;;;6184867;23;20009;-83
2022/07/23 11:40:58;;;;;;;8.10;7.30;;;38.70;42.10;;;;;;6185153;23;20036;-82
2022/07/23 11:43:24;;;;;;;10.10;8.77;;;39.00;41.80;;;;;;6184545;23;20431;-83
2022/07/23 11:45:53;;;;;;;9.13;7.50;;;39.30;39.40;;;;;;6185101;23;20304;-82
2022/07/23 11:48:22;;;;;;;8.35;7.55;;;39.50;40.40;;;;;;6184615;23;20054;-82
2022/07/23 11:50:49;;;;;;;7.95;7.15;;;39.70;40.90;;;;;;6184391;23;20001;-83
2022/07/23 11:53:29;;;;;;;7.95;7.25;;;40.00;40.90;;;;;;6184277;23;20072;-82
2022/07/23 11:56:10;;;;;;;7.80;6.85;;;40.40;40.50;;;;;;6183812;23;20056;-82
2022/07/23 11:58:36;;;;;;;7.10;6.40;;;40.60;39.40;;;;;;6184152;23;20032;-82
2022/07/23 12:01:02;;;;;;;9.98;6.93;;;40.80;39.10;;;;;;6184339;23;20056;-82
2022/07/23 12:03:28;;;;;;;12.95;8.07;;;40.90;39.20;;;;;;6183891;23;20009;-82
2022/07/23 12:05:58;;;;;;;7.90;7.10;;;41.10;39.20;;;;;;6184886;23;20443;-82
2022/07/23 12:08:24;;;;;;;7.78;7.07;;;41.30;38.80;;;;;;6184882;23;20005;-83
2022/07/23 12:10:50;;;;;;;7.68;6.97;;;41.40;39.10;;;;;;6184167;23;20536;-82
2022/07/23 12:13:18;;;;;;;8.43;7.63;;;41.40;39.20;;;;;;6179323;23;20305;-78
2022/07/23 12:15:49;;;;;;;8.77;7.70;;;41.40;38.90;;;;;;6182149;23;20024;-77
2022/07/23 12:18:21;;;;;;;8.80;7.60;;;41.30;36.90;;;;;;6183181;23;20007;-77
2022/07/23 12:20:50;;;;;;;11.88;8.85;;;41.40;39.00;;;;;;6185347;23;20544;-77
2022/07/23 12:23:18;;;;;;;10.98;8.65;;;41.20;39.00;;;;;;6186464;23;20012;-77
2022/07/23 12:25:45;;;;;;;8.35;7.55;;;41.20;39.00;;;;;;6185714;23;20305;-77
2022/07/23 12:28:13;;;;;;;10.52;7.72;;;41.20;39.40;;;;;;6160017;23;20332;-77
2022/07/23 12:30:39;;;;;;;10.85;8.25;;;41.10;39.50;;;;;;6186578;23;20424;-77
2022/07/23 12:33:06;;;;;;;11.45;8.82;;;41.00;39.60;;;;;;6186131;23;20055;-77
2022/07/23 12:35:44;;;;;;;10.48;8.57;;;41.10;40.10;;;;;;6185834;23;20001;-77
2022/07/23 12:38:15;;;;;;;9.63;8.63;;;41.20;39.20;;;;;;6185721;23;20001;-77
2022/07/23 12:40:44;;;;;;;10.18;9.10;;;41.30;39.40;;;;;;6186104;23;20317;-77
2022/07/23 12:43:18;;;;;;;10.75;8.88;;;41.40;39.30;;;;;;6186154;23;20439;-77